Time;durP1;ratioP1;P1;durP2;ratioP2;P2;SDS_P1;SDS_P2;PMS_P1;PMS_P2;Temp;Humidity;BMP_temperature;BMP_pressure;BME280_temperature;BME280_humidity;BME280_pressure;Samples;Min_cycle;Max_cycle;Signal;HPM_P1;HPM_P2
2023/10/13 00:00:40;;;;;;;22.45;14.47;;;;;;;14.44;95.57;100156.59;1712487;84;21086;-73
2023/10/13 00:03:14;;;;;;;24.05;14.30;;;;;;;14.43;96.26;100161.27;1712316;83;21087;-75
2023/10/13 00:05:41;;;;;;;22.75;15.30;;;;;;;14.43;96.88;100157.67;1712827;83;21475;-73
2023/10/13 00:08:10;;;;;;;27.20;15.23;;;;;;;14.41;97.51;100154.27;1712586;83;21046;-75
2023/10/13 00:10:38;;;;;;;24.45;15.48;;;;;;;14.40;98.06;100158.09;1712661;82;21462;-74
2023/10/13 00:13:15;;;;;;;24.98;16.52;;;;;;;14.40;98.67;100159.47;1712374;84;21285;-73
2023/10/13 00:15:59;;;;;;;31.25;17.62;;;;;;;14.42;99.22;100144.92;1712579;83;21086;-73
2023/10/13 00:18:41;;;;;;;27.17;17.95;;;;;;;14.43;99.65;100131.48;1712424;84;21532;-71
2023/10/13 00:21:12;;;;;;;27.27;18.52;;;;;;;14.45;100.00;100137.60;1712494;83;21463;-72
2023/10/13 00:23:32;;;;;;;32.08;19.00;;;;;;;14.43;100.00;100162.64;1712421;83;21062;-73
2023/10/13 00:26:03;;;;;;;29.50;18.10;;;;;;;14.42;100.00;100158.70;1712507;84;21050;-73
2023/10/13 00:28:46;;;;;;;28.07;18.92;;;;;;;14.42;100.00;100155.45;1712463;84;21501;-73
2023/10/13 00:31:12;;;;;;;29.82;19.82;;;;;;;14.43;100.00;100150.77;1712344;83;21015;-74
2023/10/13 00:33:41;;;;;;;31.30;19.10;;;;;;;14.44;100.00;100143.66;1712412;84;21055;-73
2023/10/13 00:36:17;;;;;;;29.72;19.07;;;;;;;14.45;100.00;100151.39;1712494;84;21494;-74
2023/10/13 00:38:41;;;;;;;25.90;18.07;;;;;;;14.44;100.00;100142.81;1712649;83;21027;-73
2023/10/13 00:41:14;;;;;;;29.15;18.85;;;;;;;14.46;100.00;100127.73;1712463;84;21319;-74
2023/10/13 00:44:05;;;;;;;30.90;19.82;;;;;;;14.45;100.00;100130.17;1712597;84;21075;-74
2023/10/13 00:46:35;;;;;;;29.23;18.35;;;;;;;14.46;100.00;100122.21;1712406;84;21086;-73
2023/10/13 00:49:08;;;;;;;27.35;18.95;;;;;;;14.46;100.00;100133.78;1712427;82;21042;-74
2023/10/13 00:51:47;;;;;;;27.67;18.98;;;;;;;14.44;100.00;100135.92;1712226;83;21478;-73
2023/10/13 00:54:16;;;;;;;36.23;19.80;;;;;;;14.43;100.00;100141.13;1712626;84;21007;-74
2023/10/13 00:57:04;;;;;;;28.62;18.98;;;;;;;14.42;100.00;100143.55;1712410;83;21062;-75
2023/10/13 00:59:28;;;;;;;32.10;19.55;;;;;;;14.44;100.00;100156.59;1712458;83;21051;-73
2023/10/13 01:01:57;;;;;;;29.45;19.07;;;;;;;14.44;100.00;100165.70;1712258;82;21133;-74
2023/10/13 01:04:30;;;;;;;30.20;18.82;;;;;;;14.45;100.00;100161.04;1712501;83;21079;-74
2023/10/13 01:06:58;;;;;;;27.95;17.55;;;;;;;14.47;100.00;100161.65;1712277;84;21552;-75
2023/10/13 01:09:26;;;;;;;27.10;18.77;;;;;;;14.47;100.00;100152.84;1712433;84;21063;-74
2023/10/13 01:11:55;;;;;;;31.02;18.23;;;;;;;14.47;100.00;100159.73;1712271;84;21074;-72
2023/10/13 01:14:28;;;;;;;27.42;18.35;;;;;;;14.48;100.00;100153.15;1712288;84;21046;-74
2023/10/13 01:16:55;;;;;;;28.65;18.75;;;;;;;14.51;100.00;100158.73;1717256;82;21062;-72
2023/10/13 01:19:27;;;;;;;23.95;17.67;;;;;;;14.53;100.00;100156.59;1712282;83;21082;-71
2023/10/13 01:22:01;;;;;;;25.85;18.20;;;;;;;14.54;100.00;100158.28;1716179;83;21058;-72
2023/10/13 01:24:31;;;;;;;26.82;17.85;;;;;;;14.51;100.00;100164.25;1712281;84;21003;-71
2023/10/13 01:27:07;;;;;;;27.02;17.15;;;;;;;14.50;100.00;100159.81;1712238;84;21079;-74
2023/10/13 01:29:30;;;;;;;29.40;18.62;;;;;;;14.49;100.00;100163.64;1712335;83;21067;-73
2023/10/13 01:31:59;;;;;;;26.02;17.40;;;;;;;14.49;100.00;100164.48;1712280;84;21043;-74
2023/10/13 01:34:33;;;;;;;26.77;17.23;;;;;;;14.50;100.00;100170.30;1712341;84;21062;-73
2023/10/13 01:37:05;;;;;;;24.35;16.57;;;;;;;14.51;100.00;100167.02;1712298;84;21055;-72
2023/10/13 01:39:31;;;;;;;24.60;16.50;;;;;;;14.52;100.00;100175.05;1712313;83;21122;-73
2023/10/13 01:42:01;;;;;;;29.30;17.85;;;;;;;14.53;100.00;100180.03;1712430;84;21035;-73
2023/10/13 01:44:30;;;;;;;25.57;16.97;;;;;;;14.54;100.00;100183.94;1712260;84;21051;-72
2023/10/13 01:47:09;;;;;;;27.45;16.93;;;;;;;14.55;100.00;100183.41;1712200;84;21507;-71
2023/10/13 01:49:46;;;;;;;25.62;15.98;;;;;;;14.52;100.00;100186.62;1712091;83;21099;-72
2023/10/13 01:52:17;;;;;;;26.05;16.77;;;;;;;14.49;100.00;100192.59;1712539;84;21043;-73
2023/10/13 01:54:49;;;;;;;27.52;16.48;;;;;;;14.48;100.00;100188.14;1712273;84;21102;-74
2023/10/13 01:57:19;;;;;;;25.72;17.02;;;;;;;14.46;100.00;100193.05;1712384;84;21124;-74
2023/10/13 01:59:48;;;;;;;24.90;16.82;;;;;;;14.46;100.00;100194.42;1712370;84;21043;-74
2023/10/13 02:02:28;;;;;;;24.55;16.67;;;;;;;14.47;100.00;100196.11;1712155;84;21059;-71
2023/10/13 02:04:55;;;;;;;26.00;17.07;;;;;;;14.46;100.00;100206.30;1710033;83;21039;-73
2023/10/13 02:07:20;;;;;;;28.35;16.37;;;;;;;14.49;100.00;100211.89;1712351;83;21086;-74
2023/10/13 02:09:49;;;;;;;25.05;15.93;;;;;;;14.48;100.00;100216.56;1712377;84;21039;-71
2023/10/13 02:12:19;;;;;;;24.10;16.80;;;;;;;14.48;100.00;100219.31;1712351;84;21058;-72
2023/10/13 02:14:47;;;;;;;26.33;15.60;;;;;;;14.50;100.00;100224.60;1712523;84;21415;-71
2023/10/13 02:17:16;;;;;;;25.90;16.95;;;;;;;14.50;100.00;100224.06;1717301;82;21565;-72
2023/10/13 02:19:45;;;;;;;26.30;15.85;;;;;;;14.49;100.00;100222.38;1712445;84;21467;-74
2023/10/13 02:22:29;;;;;;;23.98;15.83;;;;;;;14.50;100.00;100227.36;1712291;84;21070;-73
2023/10/13 02:25:05;;;;;;;25.23;15.30;;;;;;;14.50;100.00;100232.34;1712175;84;21560;-73
2023/10/13 02:27:28;;;;;;;23.95;15.88;;;;;;;14.49;100.00;100224.30;1712525;83;21044;-72
2023/10/13 02:30:00;;;;;;;25.65;15.68;;;;;;;14.49;100.00;100233.94;1712248;83;21493;-72
2023/10/13 02:32:30;;;;;;;27.05;16.17;;;;;;;14.47;100.00;100235.55;1712200;84;21478;-72
2023/10/13 02:35:05;;;;;;;28.50;15.90;;;;;;;14.49;100.00;100238.92;1712360;84;21082;-72
2023/10/13 02:37:29;;;;;;;23.47;16.17;;;;;;;14.50;100.00;100241.14;1712354;83;21040;-73
2023/10/13 02:40:00;;;;;;;24.75;15.55;;;;;;;14.48;100.00;100240.53;1712315;82;21558;-72
2023/10/13 02:42:29;;;;;;;28.60;15.32;;;;;;;14.49;100.00;100243.59;1712309;84;21047;-72
2023/10/13 02:44:58;;;;;;;22.58;15.13;;;;;;;14.48;100.00;100248.80;1712291;84;21099;-74
2023/10/13 02:47:26;;;;;;;23.65;15.40;;;;;;;14.49;100.00;100243.59;1712589;84;21074;-72
2023/10/13 02:50:00;;;;;;;24.12;14.75;;;;;;;14.49;100.00;100251.86;1712440;84;21497;-72
2023/10/13 02:52:27;;;;;;;20.97;14.53;;;;;;;14.48;100.00;100244.66;1712398;82;21466;-72
2023/10/13 02:54:57;;;;;;;20.45;13.75;;;;;;;14.48;100.00;100247.42;1692704;84;21094;-73
2023/10/13 02:57:26;;;;;;;22.73;13.00;;;;;;;14.50;100.00;100250.80;1712468;84;21054;-73
2023/10/13 02:59:58;;;;;;;21.62;14.07;;;;;;;14.49;100.00;100247.20;1712387;84;21121;-73
2023/10/13 03:02:28;;;;;;;21.12;12.90;;;;;;;14.51;100.00;100249.72;1712406;84;21031;-75
2023/10/13 03:05:02;;;;;;;20.40;13.95;;;;;;;14.51;100.00;100249.72;1712296;82;21047;-73
2023/10/13 03:07:31;;;;;;;20.37;13.08;;;;;;;14.52;100.00;100251.41;1712334;84;21011;-72
2023/10/13 03:10:09;;;;;;;18.55;13.13;;;;;;;14.54;100.00;100260.30;1692724;84;21055;-72
2023/10/13 03:12:33;;;;;;;18.35;12.70;;;;;;;14.51;100.00;100253.86;1712382;83;21039;-73
2023/10/13 03:15:17;;;;;;;19.60;13.45;;;;;;;14.50;100.00;100257.16;1712140;83;21119;-72
2023/10/13 03:17:45;;;;;;;18.05;12.03;;;;;;;14.52;100.00;100265.20;1722164;82;21170;-73
2023/10/13 03:20:22;;;;;;;17.37;12.10;;;;;;;14.53;100.00;100259.98;1723157;83;21054;-73
2023/10/13 03:22:47;;;;;;;18.65;12.15;;;;;;;14.53;100.00;100261.36;1722986;83;21502;-73
2023/10/13 03:25:29;;;;;;;18.77;11.75;;;;;;;14.51;100.00;100262.97;1722919;83;21062;-72
2023/10/13 03:30:35;;;;;;;18.57;12.07;;;;;;;14.51;100.00;100266.27;1712280;84;21090;-71
2023/10/13 03:33:12;;;;;;;17.50;12.25;;;;;;;14.50;100.00;100259.91;1712044;84;21533;-72
2023/10/13 03:35:41;;;;;;;20.30;12.60;;;;;;;14.50;100.00;100265.95;1693932;84;21063;-71
2023/10/13 03:38:20;;;;;;;18.95;12.07;;;;;;;14.48;100.00;100268.09;1712420;84;21055;-71
2023/10/13 03:41:06;;;;;;;16.67;11.78;;;;;;;14.47;100.00;100274.68;1712326;84;21483;-72
2023/10/13 03:43:29;;;;;;;18.57;12.13;;;;;;;14.46;100.00;100271.61;1712451;83;21031;-72
2023/10/13 03:46:07;;;;;;;21.10;12.40;;;;;;;14.47;100.00;100279.66;1712279;83;21102;-73
2023/10/13 03:48:31;;;;;;;17.48;11.57;;;;;;;14.46;100.00;100277.97;1712120;83;21067;-72
2023/10/13 03:51:03;;;;;;;19.87;11.35;;;;;;;14.46;100.00;100282.11;1712181;84;21539;-72
2023/10/13 03:53:34;;;;;;;16.65;10.72;;;;;;;14.45;100.00;100279.58;1712305;84;21058;-72
2023/10/13 03:56:08;;;;;;;18.77;11.25;;;;;;;14.46;100.00;100279.88;1712257;84;21015;-71
2023/10/13 03:58:41;;;;;;;19.70;10.82;;;;;;;14.45;100.00;100281.80;1712159;84;21038;-71
2023/10/13 04:01:10;;;;;;;19.80;10.78;;;;;;;14.46;100.00;100288.16;1712197;84;21097;-71
2023/10/13 04:03:38;;;;;;;18.42;11.00;;;;;;;14.46;100.00;100287.63;1712400;84;21126;-72
2023/10/13 04:06:08;;;;;;;13.75;10.20;;;;;;;14.47;100.00;100289.84;1712291;84;21050;-73
2023/10/13 04:08:47;;;;;;;16.37;11.28;;;;;;;14.47;100.00;100289.30;1712107;84;21641;-73
2023/10/13 04:14:56;;;;;;;17.90;11.38;;;;;;;14.47;100.00;100281.04;1712380;84;21075;-72
2023/10/13 04:16:54;;;;;;;18.45;11.18;;;;;;;14.47;100.00;100285.17;1717660;83;21046;-71
2023/10/13 04:19:28;;;;;;;15.23;11.50;;;;;;;14.46;100.00;100285.40;1723208;83;21121;-71
2023/10/13 04:22:00;;;;;;;17.40;11.40;;;;;;;14.44;100.00;100287.53;1718528;83;21114;-72
2023/10/13 04:27:29;;;;;;;16.35;11.15;;;;;;;14.42;100.00;100293.78;1712309;84;21078;-73
2023/10/13 04:30:10;;;;;;;16.90;11.05;;;;;;;14.40;100.00;100306.95;1712672;83;21067;-73
2023/10/13 04:32:38;;;;;;;16.82;11.30;;;;;;;14.40;100.00;100316.06;1712436;82;21066;-72
2023/10/13 04:35:18;;;;;;;16.02;10.10;;;;;;;14.41;100.00;100321.04;1712240;83;21489;-70
2023/10/13 04:37:53;;;;;;;17.57;10.80;;;;;;;14.39;100.00;100325.39;1712373;82;21075;-71
2023/10/13 04:40:34;;;;;;;15.70;10.28;;;;;;;14.39;100.00;100354.34;1712362;84;21058;-72
2023/10/13 04:42:57;;;;;;;15.78;9.90;;;;;;;14.38;100.00;100350.42;1712415;82;21043;-73
2023/10/13 04:48:17;;;;;;;14.45;9.93;;;;;;;14.39;100.00;100352.12;1712536;84;21074;-72
2023/10/13 04:50:47;;;;;;;17.17;10.28;;;;;;;14.40;100.00;100351.05;1712468;84;21043;-73
2023/10/13 04:53:59;;;;;;;16.48;10.68;;;;;;;14.40;100.00;100358.78;1712385;82;21118;-71
2023/10/13 04:56:53;;;;;;;17.02;10.25;;;;;;;14.42;100.00;100365.45;1712907;83;21043;-72
2023/10/13 05:48:41;;;;;;;13.83;9.80;;;;;;;14.54;100.00;100425.73;1712298;84;21062;-73
2023/10/13 06:30:36;;;;;;;14.38;8.58;;;;;;;14.94;100.00;100459.36;1712377;84;21114;-72
2023/10/13 06:33:05;;;;;;;11.85;8.10;;;;;;;14.97;100.00;100460.86;1712167;82;21047;-72
2023/10/13 06:35:34;;;;;;;17.15;8.98;;;;;;;14.97;100.00;100467.76;1712296;84;21498;-72
2023/10/13 06:38:04;;;;;;;17.57;9.80;;;;;;;14.98;100.00;100468.06;1712208;84;21522;-73
2023/10/13 06:40:36;;;;;;;14.68;8.98;;;;;;;14.98;100.00;100474.97;1712209;82;21091;-72
2023/10/13 06:43:12;;;;;;;16.02;9.30;;;;;;;14.98;100.00;100468.06;1712424;84;21047;-72
2023/10/13 06:45:50;;;;;;;14.53;8.55;;;;;;;14.99;100.00;100480.80;1712276;83;21179;-73
2023/10/13 06:48:18;;;;;;;14.30;9.18;;;;;;;15.01;100.00;100488.31;1712158;84;21807;-72
2023/10/13 06:50:51;;;;;;;14.63;8.13;;;;;;;15.03;100.00;100486.17;1712276;84;21046;-72
2023/10/13 06:53:20;;;;;;;12.98;7.42;;;;;;;15.06;100.00;100485.73;1712177;83;21082;-71
2023/10/13 06:55:52;;;;;;;11.57;7.00;;;;;;;15.07;100.00;100481.89;1712177;84;21026;-73
2023/10/13 06:58:23;;;;;;;12.13;7.90;;;;;;;15.07;100.00;100483.27;1712147;84;21498;-72
2023/10/13 07:00:55;;;;;;;14.83;7.87;;;;;;;15.10;100.00;100498.00;1712239;84;21109;-73
2023/10/13 07:03:24;;;;;;;9.33;6.95;;;;;;;15.12;100.00;100500.84;1712137;84;21031;-74
2023/10/13 07:05:54;;;;;;;11.70;7.65;;;;;;;15.14;100.00;100497.33;1712530;84;21086;-71
2023/10/13 07:08:25;;;;;;;13.35;7.40;;;;;;;15.16;100.00;100507.61;1712127;82;21066;-72
2023/10/13 07:11:05;;;;;;;10.68;6.47;;;;;;;15.20;100.00;100510.23;1712232;82;21114;-73
2023/10/13 07:13:39;;;;;;;12.58;6.35;;;;;;;15.26;100.00;100503.49;1712298;83;21564;-72
2023/10/13 07:16:12;;;;;;;11.35;6.25;;;;;;;15.29;100.00;100508.56;1712193;84;21043;-72
2023/10/13 07:18:52;;;;;;;15.63;7.15;;;;;;;15.29;100.00;100517.69;1720389;82;21613;-72
2023/10/13 07:21:45;;;;;;;13.85;6.95;;;;;;;15.32;100.00;100517.23;1712488;82;21094;-73
2023/10/13 07:24:00;;;;;;;10.55;6.00;;;;;;;15.27;99.36;100515.69;1710090;84;21103;-73
2023/10/13 07:26:23;;;;;;;11.25;6.40;;;;;;;15.27;99.00;100523.97;1712414;82;21031;-72
2023/10/13 07:28:52;;;;;;;11.35;6.25;;;;;;;15.26;98.56;100520.91;1712345;84;21094;-72
2023/10/13 07:31:21;;;;;;;10.95;6.33;;;;;;;15.24;97.87;100527.19;1712168;84;21066;-73
2023/10/13 07:33:50;;;;;;;14.05;6.42;;;;;;;15.21;97.69;100526.25;1712174;83;21039;-72
2023/10/13 07:36:33;;;;;;;8.98;5.95;;;;;;;15.22;97.73;100521.05;1712323;83;21463;-72
2023/10/13 07:41:54;;;;;;;12.15;6.00;;;;;;;15.21;96.85;100513.83;1712364;83;21058;-73
2023/10/13 07:44:31;;;;;;;11.93;6.78;;;;;;;15.22;96.21;100526.56;1712263;82;21050;-72
2023/10/13 07:47:02;;;;;;;11.12;6.05;;;;;;;15.25;95.88;100522.51;1712258;83;21019;-71
2023/10/13 07:49:37;;;;;;;9.13;6.45;;;;;;;15.28;96.10;100527.05;1712411;84;21475;-73
2023/10/13 07:52:58;;;;;;;11.20;6.50;;;;;;;15.32;96.00;100531.05;1712181;84;21102;-73
2023/10/13 07:55:10;;;;;;;14.43;6.37;;;;;;;15.37;96.12;100535.35;1704890;83;21062;-74
2023/10/13 07:57:30;;;;;;;10.25;6.20;;;;;;;15.37;95.75;100528.45;1712568;83;21054;-72
2023/10/13 08:00:26;;;;;;;10.95;7.05;;;;;;;15.39;95.81;100530.98;1710322;82;21009;-72
2023/10/13 08:02:51;;;;;;;12.33;6.42;;;;;;;15.47;96.22;100540.36;1721662;82;21084;-72
2023/10/13 08:05:29;;;;;;;11.83;6.55;;;;;;;15.62;96.41;100546.98;1710814;83;21051;-70
2023/10/13 08:07:53;;;;;;;10.85;5.50;;;;;;;15.73;95.92;100542.94;1710529;83;21021;-73
2023/10/13 08:10:29;;;;;;;10.43;6.12;;;;;;;15.79;94.55;100545.32;1710594;84;21084;-70
2023/10/13 08:12:54;;;;;;;8.63;5.60;;;;;;;15.83;93.94;100551.54;1710560;84;21041;-73
2023/10/13 08:15:32;;;;;;;10.13;5.50;;;;;;;15.82;92.65;100555.37;1710607;84;21695;-70
2023/10/13 08:17:58;;;;;;;9.00;5.72;;;;;;;15.82;91.87;100562.28;1721750;82;21073;-73
2023/10/13 08:20:30;;;;;;;11.75;6.30;;;;;;;15.77;91.65;100558.52;1714258;83;21623;-71
2023/10/13 08:23:13;;;;;;;13.65;5.90;;;;;;;15.71;91.17;100571.32;1701568;84;21066;-74
2023/10/13 08:28:46;;;;;;;10.53;5.42;;;;;;;15.65;91.68;100561.72;1606997;84;21077;-75
2023/10/13 08:30:52;;;;;;;9.20;5.45;;;;;;;15.63;91.76;100561.09;1703585;84;21076;-73
2023/10/13 08:33:24;;;;;;;11.18;5.80;;;;;;;15.55;90.70;100562.16;1704663;84;22098;-77
2023/10/13 08:36:26;;;;;;;12.15;5.90;;;;;;;15.54;91.13;100565.47;1712011;83;21037;-79
2023/10/13 08:38:50;;;;;;;10.80;5.85;;;;;;;15.57;90.81;100575.22;1713415;82;21563;-78
2023/10/13 08:43:50;;;;;;;10.85;5.42;;;;;;;15.65;90.61;100565.86;1711701;83;21034;-78
2023/10/13 08:46:38;;;;;;;11.95;5.75;;;;;;;15.76;91.62;100559.59;1711395;83;21133;-79
2023/10/13 08:49:14;;;;;;;10.10;4.90;;;;;;;15.88;90.82;100563.28;1712031;83;21038;-80
2023/10/13 08:51:43;;;;;;;8.15;5.42;;;;;;;15.93;90.01;100570.36;1711642;82;21074;-78
2023/10/13 08:54:19;;;;;;;10.88;5.33;;;;;;;16.01;89.71;100571.44;1703492;82;21571;-78
2023/10/13 08:56:56;;;;;;;9.15;5.28;;;;;;;16.07;89.45;100574.66;1681440;84;21112;-79
2023/10/13 08:59:52;;;;;;;8.78;4.60;;;;;;;16.15;89.00;100578.50;1680973;85;21511;-79
2023/10/13 09:02:15;;;;;;;8.00;4.67;;;;;;;16.22;88.12;100583.12;1682411;84;21025;-78
2023/10/13 09:04:45;;;;;;;8.83;4.42;;;;;;;16.28;86.49;100580.84;1681545;84;21045;-77
2023/10/13 09:07:21;;;;;;;7.47;4.30;;;;;;;16.29;85.95;100583.38;1683243;84;21049;-79
2023/10/13 09:17:53;;;;;;;7.72;4.47;;;;;;;16.44;82.08;100584.37;1702469;83;21116;-79
2023/10/13 09:23:23;;;;;;;9.98;4.33;;;;;;;16.55;80.69;100590.50;1703082;84;21053;-77
2023/10/13 09:26:08;;;;;;;7.35;4.62;;;;;;;16.59;80.14;100602.80;1697388;84;21489;-76
2023/10/13 09:28:31;;;;;;;10.15;5.10;;;;;;;16.60;79.86;100595.34;1693214;84;21094;-76
2023/10/13 09:31:00;;;;;;;8.98;5.25;;;;;;;16.62;80.11;100591.80;1693308;85;21034;-78
2023/10/13 09:33:35;;;;;;;10.78;4.70;;;;;;;16.64;80.25;100589.11;1693448;85;21559;-78
2023/10/13 09:36:04;;;;;;;7.87;4.55;;;;;;;16.65;79.33;100589.44;1693556;85;21042;-76
2023/10/13 09:38:36;;;;;;;9.90;4.62;;;;;;;16.64;79.46;100591.88;1693411;84;21065;-78
2023/10/13 09:41:26;;;;;;;9.08;4.20;;;;;;;16.65;79.59;100585.30;1693360;85;21098;-78
2023/10/13 09:43:52;;;;;;;8.08;4.05;;;;;;;16.66;77.68;100584.75;1693867;84;21510;-78
2023/10/13 09:46:26;;;;;;;7.15;3.80;;;;;;;16.68;77.45;100585.37;1693436;84;21598;-79
2023/10/13 09:49:07;;;;;;;8.73;4.28;;;;;;;16.70;76.95;100590.13;1693451;84;21014;-77
2023/10/13 09:51:36;;;;;;;9.20;4.58;;;;;;;16.71;76.70;100587.66;1693496;84;21040;-79
2023/10/13 09:54:29;;;;;;;6.65;3.65;;;;;;;16.78;76.61;100582.34;1693439;85;21564;-77
2023/10/13 09:57:09;;;;;;;9.45;3.50;;;;;;;16.87;75.91;100587.55;1693151;85;21073;-78
2023/10/13 09:59:52;;;;;;;6.97;2.95;;;;;;;16.87;75.21;100587.55;1693221;84;21073;-78
2023/10/13 10:02:27;;;;;;;4.60;3.27;;;;;;;16.89;74.69;100589.55;1693529;84;21066;-77
2023/10/13 10:05:49;;;;;;;4.55;2.58;;;;;;;16.94;72.30;100585.56;1693340;84;21591;-78
2023/10/13 10:07:34;;;;;;;6.15;2.77;;;;;;;16.95;70.41;100575.64;1674311;83;21126;-78
2023/10/13 10:10:08;;;;;;;5.67;2.75;;;;;;;17.00;70.15;100566.63;1709136;84;21493;-77
2023/10/13 10:13:05;;;;;;;6.47;2.87;;;;;;;17.02;70.11;100561.70;1708860;84;21511;-76
2023/10/13 10:15:43;;;;;;;5.85;2.70;;;;;;;17.05;69.29;100569.53;1709097;82;21089;-76
2023/10/13 10:18:10;;;;;;;8.93;3.98;;;;;;;17.09;68.87;100570.21;1710303;82;21022;-76
2023/10/13 10:20:41;;;;;;;11.25;3.00;;;;;;;17.13;68.50;100570.58;1699813;83;21084;-76
2023/10/13 10:23:21;;;;;;;6.42;2.47;;;;;;;17.18;67.93;100571.26;1718991;83;22032;-77
2023/10/13 10:25:46;;;;;;;7.17;3.05;;;;;;;17.23;66.90;100581.08;1719328;83;20993;-75
2023/10/13 10:28:15;;;;;;;5.28;2.17;;;;;;;17.27;66.93;100583.68;1715224;82;21020;-76
2023/10/13 10:30:45;;;;;;;5.45;2.25;;;;;;;17.23;65.11;100584.70;1705947;83;21360;-74
2023/10/13 10:33:15;;;;;;;4.85;2.50;;;;;;;17.19;65.25;100584.02;1704469;83;21130;-76
2023/10/13 10:35:46;;;;;;;5.40;2.58;;;;;;;17.19;64.82;100571.02;1704033;83;21177;-78
2023/10/13 10:41:06;;;;;;;3.80;2.25;;;;;;;17.23;64.34;100573.62;1680060;84;21031;-76
2023/10/13 10:43:42;;;;;;;;;;;;;;;17.29;64.38;100582.91;1678434;85;21103;-75
2023/10/13 10:46:27;;;;;;;12.47;5.60;;;;;;;17.36;63.46;100578.95;1676143;85;20631;-76
2023/10/13 10:49:00;;;;;;;4.45;2.30;;;;;;;17.42;62.97;100579.37;1676346;85;21071;-74
2023/10/13 10:51:33;;;;;;;6.42;2.37;;;;;;;17.47;61.70;100576.43;1676017;84;21111;-76
2023/10/13 10:54:12;;;;;;;5.83;2.55;;;;;;;17.43;61.39;100577.45;1676333;84;21115;-78
2023/10/13 10:56:41;;;;;;;8.93;2.22;;;;;;;17.41;61.42;100576.84;1658727;85;21152;-78
2023/10/13 10:59:18;;;;;;;6.83;2.50;;;;;;;17.38;60.83;100565.70;1675855;85;21094;-78
2023/10/13 11:01:47;;;;;;;5.25;2.52;;;;;;;17.35;60.90;100570.88;1676156;85;21475;-78
2023/10/13 11:06:56;;;;;;;4.17;2.58;;;;;;;17.33;59.84;100573.03;1676326;84;21059;-78
2023/10/13 11:12:23;;;;;;;4.28;2.37;;;;;;;17.32;59.37;100575.50;1703204;84;21521;-79
2023/10/13 11:14:50;;;;;;;6.28;2.55;;;;;;;17.35;58.51;100567.56;1703065;84;21049;-78
2023/10/13 11:20:16;;;;;;;4.15;2.22;;;;;;;17.35;57.84;100559.25;1702800;84;21469;-73
2023/10/13 11:22:54;;;;;;;4.95;2.10;;;;;;;17.32;56.97;100556.11;1702801;84;21053;-77
2023/10/13 11:25:35;;;;;;;;;;;;;;;17.29;56.91;100571.83;1705212;83;21081;-77
2023/10/13 11:28:20;;;;;;;5.22;2.37;;;;;;;17.27;57.32;100562.91;1703154;84;20217;-79
2023/10/13 11:30:49;;;;;;;4.45;2.35;;;;;;;17.28;57.40;100566.83;1703913;83;21483;-78
2023/10/13 11:33:20;;;;;;;10.18;2.60;;;;;;;17.30;57.06;100565.20;1704166;83;21115;-80
2023/10/13 11:35:55;;;;;;;11.90;5.17;;;;;;;17.29;56.50;100569.90;1704095;83;21513;-78
2023/10/13 11:38:41;;;;;;;9.20;3.30;;;;;;;17.30;56.17;100564.66;1704094;84;21023;-77
2023/10/13 11:51:47;;;;;;;6.42;2.47;;;;;;;17.40;56.67;100559.92;1707730;83;21075;-74
2023/10/13 11:54:18;;;;;;;5.00;2.20;;;;;;;17.39;55.83;100558.23;1704266;84;21079;-74
2023/10/13 11:56:48;;;;;;;5.08;2.37;;;;;;;17.36;55.92;100563.71;1704069;84;21536;-79
2023/10/13 11:59:18;;;;;;;5.25;2.20;;;;;;;17.35;55.72;100559.80;1704160;83;21106;-77
2023/10/13 12:07:17;;;;;;;6.00;2.45;;;;;;;17.33;55.41;100555.87;1704826;84;21047;-74
2023/10/13 12:12:24;;;;;;;4.60;2.30;;;;;;;17.30;55.79;100564.66;1713810;82;21105;-75
2023/10/13 12:14:57;;;;;;;4.33;2.47;;;;;;;17.30;55.88;100559.13;1713732;82;21029;-76
2023/10/13 12:17:31;;;;;;;7.10;2.33;;;;;;;17.31;56.21;100554.42;1713909;84;21049;-75
2023/10/13 12:20:04;;;;;;;3.80;2.20;;;;;;;17.33;56.33;100560.03;1712288;83;21389;-76
2023/10/13 12:22:35;;;;;;;3.90;1.90;;;;;;;17.35;56.05;100554.25;1711604;83;21029;-76
2023/10/13 12:25:54;;;;;;;4.08;2.30;;;;;;;17.34;55.52;100559.48;1711243;82;21006;-77
2023/10/13 12:27:45;;;;;;;5.25;2.30;;;;;;;17.35;55.02;100553.71;1685738;83;21054;-76
2023/10/13 12:30:13;;;;;;;3.80;2.30;;;;;;;17.35;55.00;100554.25;1712024;83;21033;-77
2023/10/13 12:32:58;;;;;;;6.40;3.77;;;;;;;17.38;54.74;100554.62;1701956;84;21175;-75
2023/10/13 12:35:27;;;;;;;4.92;2.60;;;;;;;17.39;54.44;100543.84;1712793;82;21077;-75
2023/10/13 12:54:04;;;;;;;3.52;1.90;;;;;;;17.50;52.41;100554.63;1681671;83;21414;-75
2023/10/13 12:56:33;;;;;;;3.15;2.08;;;;;;;17.53;52.10;100560.23;1711316;84;21084;-76
2023/10/13 12:59:08;;;;;;;3.58;2.08;;;;;;;17.57;52.45;100557.32;1711732;82;21053;-76
2023/10/13 13:01:32;;;;;;;3.95;2.62;;;;;;;17.61;52.26;100562.69;1711858;83;21042;-76
2023/10/13 13:04:03;;;;;;;7.40;2.65;;;;;;;17.64;52.20;100571.91;1711769;84;21022;-77
2023/10/13 13:06:33;;;;;;;5.75;2.80;;;;;;;17.67;52.49;100574.22;1711756;84;21084;-76
2023/10/13 13:09:02;;;;;;;4.30;2.72;;;;;;;17.69;51.84;100576.22;1704284;83;21489;-76
2023/10/13 13:11:31;;;;;;;4.22;2.40;;;;;;;17.70;52.18;100569.59;1703100;84;21054;-76
2023/10/13 13:14:00;;;;;;;5.17;2.27;;;;;;;17.69;52.51;100572.06;1703047;84;21078;-77
2023/10/13 13:16:30;;;;;;;3.70;2.22;;;;;;;17.67;52.89;100572.30;1703125;84;21081;-76
2023/10/13 13:19:03;;;;;;;4.17;2.10;;;;;;;17.67;52.82;100565.91;1703556;84;21085;-75
2023/10/13 13:21:31;;;;;;;5.67;2.60;;;;;;;17.68;52.81;100573.14;1710498;83;21077;-76
2023/10/13 13:24:02;;;;;;;4.80;2.27;;;;;;;17.67;52.79;100572.30;1710519;84;21092;-76
2023/10/13 13:26:33;;;;;;;4.33;2.50;;;;;;;17.68;52.88;100570.38;1710626;84;21069;-76
2023/10/13 13:29:02;;;;;;;4.28;2.17;;;;;;;17.69;52.57;100563.74;1710675;83;21069;-76
2023/10/13 13:31:31;;;;;;;3.72;2.05;;;;;;;17.69;51.62;100569.28;1710865;84;21041;-76
2023/10/13 13:34:01;;;;;;;4.42;1.87;;;;;;;17.67;49.82;100571.45;1710705;84;21089;-75
2023/10/13 13:36:30;;;;;;;4.95;2.05;;;;;;;17.63;50.02;100571.06;1710626;84;21513;-79
2023/10/13 13:39:00;;;;;;;4.22;2.20;;;;;;;17.60;49.88;100576.23;1710749;83;21061;-79
2023/10/13 13:41:32;;;;;;;18.23;2.20;;;;;;;17.57;49.04;100583.64;1710727;83;21052;-74
2023/10/13 13:44:13;;;;;;;4.72;2.35;;;;;;;17.55;49.86;100584.39;1710512;84;21100;-73
2023/10/13 13:46:32;;;;;;;5.50;2.50;;;;;;;17.52;50.33;100581.56;1710714;83;21105;-73
2023/10/13 13:49:06;;;;;;;5.87;3.10;;;;;;;17.51;50.39;100583.18;1710464;84;21064;-72
2023/10/13 13:51:34;;;;;;;5.35;2.37;;;;;;;17.49;50.05;100574.27;1710755;83;21037;-69
2023/10/13 13:54:06;;;;;;;3.50;2.60;;;;;;;17.47;50.11;100568.13;1710663;84;21485;-69
2023/10/13 13:56:38;;;;;;;7.20;4.10;;;;;;;17.49;50.46;100567.34;1710642;84;21046;-69
2023/10/13 13:59:09;;;;;;;5.17;2.72;;;;;;;17.53;51.75;100572.70;1710604;84;21547;-68
2023/10/13 14:01:40;;;;;;;4.62;2.40;;;;;;;17.57;51.85;100573.95;1710588;84;21041;-74
2023/10/13 14:04:10;;;;;;;4.87;2.20;;;;;;;17.59;50.82;100580.94;1710471;84;21084;-74
2023/10/13 14:06:39;;;;;;;4.85;2.12;;;;;;;17.57;50.07;100583.64;1710852;84;21555;-74
2023/10/13 14:09:32;;;;;;;8.35;3.87;;;;;;;17.52;49.87;100587.64;1722943;82;21021;-74
2023/10/13 14:14:46;;;;;;;;;;;;;;;17.40;50.19;100596.78;1721086;83;21055;-74
2023/10/13 14:17:08;;;;;;;5.75;2.83;;;;;;;17.37;50.45;100587.55;1711275;83;20211;-73
2023/10/13 14:19:40;;;;;;;4.58;2.65;;;;;;;17.32;50.57;100590.73;1714410;83;21105;-75
2023/10/13 14:22:12;;;;;;;6.80;2.30;;;;;;;17.28;50.76;100594.52;1722807;83;21058;-76
2023/10/13 14:24:51;;;;;;;3.92;2.37;;;;;;;17.22;50.70;100595.47;1716836;83;21058;-73
2023/10/13 14:27:19;;;;;;;6.28;2.40;;;;;;;17.17;50.90;100601.41;1712179;83;21039;-74